Terminal Aerodrome Forecast
Issued by NWS Buffalo, NY

Home | Current Version | Previous Version | Text Only | Print | Product List | Glossary On
Versions: 1 2 3 4 5 6 7 8 9 10 11 12 13 14 15 16 17 18 19 20 21 22 23 24 25
415
FTUS41 KBUF 200902 AAA
TAFROC
TAF AMD
KROC 200902Z 2009/2106 12006KT P6SM OVC015
     FM201200 14006KT P6SM SCT010 BKN150
     FM201700 15008KT P6SM OVC120
     FM202100 14006KT 6SM -RA OVC040
     FM210300 21005KT 4SM -DZ BR OVC007=

USA.gov is the U.S. government's official web portal to all federal, state and local government web resources and services.